createdAt,value
2023-12-09T00:02:33.284Z,59.63
2023-12-09T00:07:34.821Z,59.70
2023-12-09T00:12:36.431Z,60.57
2023-12-09T00:17:38.038Z,59.99
2023-12-09T00:22:39.910Z,61.52
2023-12-09T00:27:41.499Z,60.13
2023-12-09T00:32:43.242Z,61.48
2023-12-09T00:37:44.861Z,61.89
2023-12-09T00:42:49.097Z,61.01
2023-12-09T00:47:50.750Z,61.98
2023-12-09T00:52:52.532Z,62.28
2023-12-09T00:57:54.062Z,62.50
2023-12-09T01:02:55.683Z,62.58
2023-12-09T01:07:57.387Z,63.47
2023-12-09T01:12:58.943Z,62.40
2023-12-09T01:18:00.521Z,62.87
2023-12-09T01:23:02.064Z,63.22
2023-12-09T01:28:03.628Z,63.07
2023-12-09T01:33:05.251Z,62.74
2023-12-09T01:38:06.896Z,63.65
2023-12-09T01:43:10.323Z,64.01
2023-12-09T01:48:12.057Z,63.54
2023-12-09T01:53:13.764Z,64.52
2023-12-09T01:58:18.533Z,64.86
2023-12-09T02:03:20.316Z,65.28
2023-12-09T02:08:22.034Z,65.32
2023-12-09T02:13:31.506Z,64.40
2023-12-09T02:18:34.942Z,65.33
2023-12-09T02:23:36.749Z,65.59
2023-12-09T02:28:41.999Z,65.40
2023-12-09T02:33:47.056Z,65.98
2023-12-09T02:38:50.347Z,64.72
2023-12-09T02:43:51.983Z,65.58
2023-12-09T02:48:53.624Z,65.20
2023-12-09T02:53:55.770Z,65.78
2023-12-09T02:58:57.317Z,66.06
2023-12-09T03:03:58.982Z,66.13
2023-12-09T03:09:00.728Z,66.87
2023-12-09T03:14:02.245Z,66.62
2023-12-09T03:19:03.884Z,67.29
2023-12-09T03:24:05.766Z,67.57
2023-12-09T03:29:07.309Z,67.67
2023-12-09T03:34:09.027Z,67.13
2023-12-09T03:39:10.785Z,67.12
2023-12-09T03:44:12.426Z,66.91
2023-12-09T03:49:14.011Z,67.38
2023-12-09T03:54:15.810Z,67.55
2023-12-09T03:59:17.411Z,67.27
2023-12-09T04:04:19.037Z,67.63
2023-12-09T04:09:23.404Z,67.93
2023-12-09T04:14:25.034Z,68.00
2023-12-09T04:19:26.643Z,68.29
2023-12-09T04:24:28.417Z,67.70
2023-12-09T04:29:29.967Z,67.86
2023-12-09T04:34:31.670Z,67.38
2023-12-09T04:39:33.353Z,68.27
2023-12-09T04:44:34.939Z,67.15
2023-12-09T04:49:36.598Z,67.93
2023-12-09T04:54:38.233Z,68.12
2023-12-09T04:59:39.821Z,68.63
2023-12-09T05:04:41.363Z,69.91
2023-12-09T05:09:43.706Z,69.90
2023-12-09T05:14:45.239Z,68.44
2023-12-09T05:19:46.789Z,68.58
2023-12-09T05:24:48.945Z,69.04
2023-12-09T05:29:50.519Z,68.56
2023-12-09T05:34:52.080Z,68.47
2023-12-09T05:39:53.606Z,68.59
2023-12-09T05:44:55.165Z,69.05
2023-12-09T05:49:56.714Z,68.87
2023-12-09T05:54:58.261Z,68.59
2023-12-09T05:59:59.866Z,68.90
2023-12-09T06:05:01.474Z,68.88
2023-12-09T06:10:03.746Z,69.54
2023-12-09T06:15:08.333Z,68.84
2023-12-09T06:20:10.534Z,69.60
2023-12-09T06:25:12.058Z,70.02
2023-12-09T06:30:13.936Z,69.48
2023-12-09T06:35:15.550Z,69.48
2023-12-09T06:40:17.332Z,70.02
2023-12-09T06:45:19.000Z,70.15
2023-12-09T06:50:21.790Z,69.47
2023-12-09T06:55:23.307Z,69.07
2023-12-09T07:00:24.937Z,69.88
2023-12-09T07:05:27.643Z,69.39
2023-12-09T07:10:29.476Z,69.62
2023-12-09T07:15:31.081Z,69.41
2023-12-09T07:20:32.649Z,70.12
